Time;durP1;ratioP1;P1;durP2;ratioP2;P2;SDS_P1;SDS_P2;PMS_P1;PMS_P2;Temp;Humidity;BMP_temperature;BMP_pressure;BME280_temperature;BME280_humidity;BME280_pressure;Samples;Min_cycle;Max_cycle;Signal;HPM_P1;HPM_P2
2022/09/29 00:02:15;;;;;;;2.58;0.77;;;;;;;;;;5053358;28;20025;-74
2022/09/29 00:04:40;;;;;;;2.22;1.35;;;;;;;;;;5053253;28;20479;-74
2022/09/29 00:07:06;;;;;;;0.15;0.15;;;;;;;;;;5053450;28;20028;-74
2022/09/29 00:09:31;;;;;;;18.10;1.23;;;;;;;;;;5053439;28;20138;-75
2022/09/29 00:11:57;;;;;;;0.30;0.30;;;;;;;;;;5071556;28;20467;-75
2022/09/29 00:14:23;;;;;;;0.55;0.20;;;;;;;;;;5055209;28;20052;-75
2022/09/29 00:16:48;;;;;;;0.17;0.17;;;;;;;;;;5073194;28;20165;-76
2022/09/29 00:19:14;;;;;;;0.25;0.22;;;;;;;;;;5072980;28;20032;-76
2022/09/29 00:21:39;;;;;;;0.20;0.20;;;;;;;;;;5073117;28;20029;-76
2022/09/29 00:24:05;;;;;;;3.20;0.95;;;;;;;;;;5073296;28;20029;-75
2022/09/29 00:26:30;;;;;;;0.40;0.30;;;;;;;;;;5073343;28;20078;-75
2022/09/29 00:28:57;;;;;;;0.20;0.20;;;;;;;;;;5073150;28;20020;-76
2022/09/29 00:31:24;;;;;;;0.45;0.45;;;;;;;;;;5057925;28;20032;-75
2022/09/29 00:33:49;;;;;;;0.28;0.28;;;;;;;;;;5052932;28;20064;-76
2022/09/29 00:36:16;;;;;;;1.13;1.13;;;;;;;;;;5035369;28;20072;-75
2022/09/29 00:38:42;;;;;;;0.30;0.30;;;;;;;;;;5053484;28;20032;-75
2022/09/29 00:41:16;;;;;;;1.05;1.05;;;;;;;;;;5072969;28;20116;-76
2022/09/29 00:43:45;;;;;;;0.68;0.68;;;;;;;;;;5038540;28;20115;-76
2022/09/29 00:46:11;;;;;;;2.05;0.82;;;;;;;;;;5052932;28;20464;-76
2022/09/29 00:48:37;;;;;;;0.20;0.20;;;;;;;;;;5052849;28;20108;-74
2022/09/29 00:51:02;;;;;;;0.22;0.22;;;;;;;;;;5035179;28;20531;-75
2022/09/29 00:53:28;;;;;;;0.82;0.57;;;;;;;;;;5052931;28;20021;-75
2022/09/29 00:56:00;;;;;;;2.95;0.68;;;;;;;;;;5034920;28;20076;-75
2022/09/29 00:58:31;;;;;;;0.55;0.55;;;;;;;;;;5035165;28;20108;-74
2022/09/29 01:00:58;;;;;;;0.13;0.13;;;;;;;;;;5069964;28;20029;-74
2022/09/29 01:03:25;;;;;;;3.63;0.45;;;;;;;;;;5074211;28;20052;-73
2022/09/29 01:05:53;;;;;;;1.60;0.22;;;;;;;;;;5076984;28;20032;-74
2022/09/29 01:08:24;;;;;;;0.20;0.20;;;;;;;;;;5059326;28;20024;-74
2022/09/29 01:10:51;;;;;;;0.20;0.20;;;;;;;;;;5058880;28;20384;-74
2022/09/29 01:13:17;;;;;;;2.42;0.95;;;;;;;;;;5076591;28;20036;-74
2022/09/29 01:15:43;;;;;;;0.30;0.30;;;;;;;;;;5041678;28;20044;-74
2022/09/29 01:18:08;;;;;;;0.50;0.50;;;;;;;;;;5076777;28;20029;-74
2022/09/29 01:20:38;;;;;;;2.38;0.90;;;;;;;;;;5076578;28;20031;-74
2022/09/29 01:23:23;;;;;;;0.43;0.43;;;;;;;;;;5076587;28;20073;-75
2022/09/29 01:26:07;;;;;;;3.60;0.85;;;;;;;;;;5062648;28;20048;-75
2022/09/29 01:28:39;;;;;;;0.10;0.10;;;;;;;;;;5062489;28;20078;-75
2022/09/29 01:31:24;;;;;;;1.20;0.80;;;;;;;;;;5056427;28;20037;-75
2022/09/29 01:33:59;;;;;;;6.00;1.13;;;;;;;;;;5045854;28;20044;-74
2022/09/29 01:36:31;;;;;;;0.10;0.10;;;;;;;;;;5055975;28;20498;-74
2022/09/29 01:39:00;;;;;;;0.20;0.20;;;;;;;;;;5056393;28;20025;-74
2022/09/29 01:41:36;;;;;;;11.07;1.63;;;;;;;;;;5056350;28;20063;-74
2022/09/29 01:44:05;;;;;;;0.55;0.55;;;;;;;;;;5039242;28;20025;-74
2022/09/29 01:46:39;;;;;;;3.00;0.65;;;;;;;;;;5038704;28;20037;-74
2022/09/29 01:49:05;;;;;;;0.40;0.40;;;;;;;;;;5055880;28;20051;-74
2022/09/29 01:51:35;;;;;;;0.68;0.45;;;;;;;;;;5021841;28;20029;-74
2022/09/29 01:54:03;;;;;;;1.55;0.50;;;;;;;;;;5056072;28;20017;-75
2022/09/29 01:56:37;;;;;;;0.20;0.20;;;;;;;;;;5055856;28;20238;-75
2022/09/29 01:59:22;;;;;;;2.05;1.17;;;;;;;;;;5056614;28;20400;-75
2022/09/29 02:01:50;;;;;;;0.20;0.20;;;;;;;;;;5055375;28;20037;-74
2022/09/29 02:04:18;;;;;;;0.28;0.28;;;;;;;;;;5055923;28;20530;-74
2022/09/29 02:06:50;;;;;;;3.65;0.73;;;;;;;;;;5055801;28;20381;-73
2022/09/29 02:09:19;;;;;;;0.25;0.25;;;;;;;;;;5037845;28;20041;-73
2022/09/29 02:11:45;;;;;;;6.63;1.75;;;;;;;;;;5055518;28;20038;-74
2022/09/29 02:14:14;;;;;;;0.38;0.38;;;;;;;;;;5063314;28;20056;-73
2022/09/29 02:16:47;;;;;;;0.20;0.20;;;;;;;;;;5020747;28;20029;-73
2022/09/29 02:19:17;;;;;;;0.75;0.75;;;;;;;;;;5021332;28;20041;-74
2022/09/29 02:21:43;;;;;;;0.52;0.50;;;;;;;;;;5055447;28;20082;-73
2022/09/29 02:24:09;;;;;;;22.17;1.27;;;;;;;;;;5055218;28;20415;-74
2022/09/29 02:26:36;;;;;;;0.20;0.20;;;;;;;;;;5055141;28;20032;-74
2022/09/29 02:29:02;;;;;;;0.10;0.10;;;;;;;;;;5057097;28;20033;-74
2022/09/29 02:31:28;;;;;;;0.77;0.77;;;;;;;;;;5075287;28;20425;-74
2022/09/29 02:33:54;;;;;;;0.20;0.20;;;;;;;;;;5075300;28;20032;-74
2022/09/29 02:36:19;;;;;;;0.20;0.20;;;;;;;;;;5057180;28;20186;-74
2022/09/29 02:39:04;;;;;;;0.20;0.20;;;;;;;;;;5075143;28;20058;-73
2022/09/29 02:41:39;;;;;;;0.20;0.20;;;;;;;;;;5056928;28;20403;-73
2022/09/29 02:44:10;;;;;;;0.10;0.10;;;;;;;;;;5075141;28;20035;-73
2022/09/29 02:46:39;;;;;;;0.20;0.20;;;;;;;;;;5075080;28;20116;-73
2022/09/29 02:49:08;;;;;;;0.20;0.20;;;;;;;;;;5074999;28;20088;-73
2022/09/29 02:51:37;;;;;;;2.33;2.13;;;;;;;;;;5057149;28;20056;-73
2022/09/29 02:54:13;;;;;;;0.13;0.13;;;;;;;;;;5056785;28;20037;-73
2022/09/29 02:56:41;;;;;;;0.20;0.20;;;;;;;;;;5074871;28;20094;-73
2022/09/29 02:59:09;;;;;;;0.10;0.10;;;;;;;;;;5055717;28;20036;-73
2022/09/29 03:01:45;;;;;;;0.20;0.20;;;;;;;;;;5054623;28;20121;-74
2022/09/29 03:04:11;;;;;;;0.17;0.17;;;;;;;;;;5015786;28;20048;-74
2022/09/29 03:06:36;;;;;;;0.20;0.20;;;;;;;;;;5050858;28;20472;-74
2022/09/29 03:09:02;;;;;;;0.20;0.20;;;;;;;;;;5032649;28;20029;-74
2022/09/29 03:11:28;;;;;;;0.20;0.20;;;;;;;;;;5050867;28;20025;-74
2022/09/29 03:13:54;;;;;;;0.20;0.20;;;;;;;;;;5058238;28;20141;-74
2022/09/29 03:16:19;;;;;;;0.20;0.20;;;;;;;;;;5035901;28;20043;-74
2022/09/29 03:18:45;;;;;;;0.10;0.10;;;;;;;;;;5070154;28;20391;-74
2022/09/29 03:21:11;;;;;;;0.20;0.20;;;;;;;;;;5070401;28;20372;-74
2022/09/29 03:23:36;;;;;;;0.28;0.28;;;;;;;;;;5070518;28;20028;-73
2022/09/29 03:26:02;;;;;;;0.20;0.20;;;;;;;;;;5070257;28;20039;-74
2022/09/29 03:28:28;;;;;;;0.20;0.20;;;;;;;;;;5039262;28;20041;-74
2022/09/29 03:30:54;;;;;;;0.10;0.10;;;;;;;;;;5050229;28;20112;-74
2022/09/29 03:33:20;;;;;;;0.15;0.15;;;;;;;;;;5050396;28;20457;-73
2022/09/29 03:35:46;;;;;;;0.20;0.20;;;;;;;;;;5032406;28;20025;-73
2022/09/29 03:38:11;;;;;;;0.30;0.30;;;;;;;;;;5050541;28;20112;-74
2022/09/29 03:40:37;;;;;;;0.20;0.20;;;;;;;;;;5050551;28;20024;-73
2022/09/29 03:43:02;;;;;;;0.30;0.30;;;;;;;;;;5058563;28;20049;-73
2022/09/29 03:45:28;;;;;;;0.15;0.15;;;;;;;;;;5069963;28;20019;-73
2022/09/29 03:47:53;;;;;;;0.10;0.10;;;;;;;;;;5070338;28;20032;-73
2022/09/29 03:50:19;;;;;;;0.20;0.20;;;;;;;;;;5070137;28;20032;-74
2022/09/29 03:52:45;;;;;;;0.20;0.20;;;;;;;;;;5052106;28;20360;-73
2022/09/29 03:55:11;;;;;;;0.10;0.10;;;;;;;;;;5051381;28;20119;-74
2022/09/29 03:57:37;;;;;;;0.20;0.20;;;;;;;;;;5063365;28;20446;-73
2022/09/29 04:00:03;;;;;;;0.10;0.10;;;;;;;;;;5050076;28;20029;-73
2022/09/29 04:02:34;;;;;;;0.15;0.15;;;;;;;;;;5068985;28;20037;-73
2022/09/29 04:05:00;;;;;;;0.22;0.22;;;;;;;;;;5069457;28;20035;-74
2022/09/29 04:07:25;;;;;;;0.10;0.10;;;;;;;;;;5069581;28;20024;-74
2022/09/29 04:09:51;;;;;;;0.20;0.20;;;;;;;;;;5051633;28;20067;-74
2022/09/29 04:12:17;;;;;;;0.15;0.15;;;;;;;;;;5025621;28;20036;-73
2022/09/29 04:14:42;;;;;;;0.10;0.10;;;;;;;;;;5069478;28;20059;-74
2022/09/29 04:17:08;;;;;;;0.20;0.20;;;;;;;;;;5069984;28;20032;-73
2022/09/29 04:19:33;;;;;;;0.10;0.10;;;;;;;;;;5069535;28;20033;-72
2022/09/29 04:21:59;;;;;;;0.15;0.15;;;;;;;;;;5069716;28;20464;-72
2022/09/29 04:24:25;;;;;;;0.20;0.20;;;;;;;;;;5051400;28;20120;-73
2022/09/29 04:26:50;;;;;;;0.17;0.17;;;;;;;;;;5069320;28;20023;-73
2022/09/29 04:29:16;;;;;;;0.20;0.20;;;;;;;;;;5056000;28;20052;-73
2022/09/29 04:31:42;;;;;;;0.20;0.20;;;;;;;;;;5049185;28;20029;-73
2022/09/29 04:34:07;;;;;;;0.20;0.20;;;;;;;;;;5048995;28;20032;-73
2022/09/29 04:36:33;;;;;;;0.20;0.20;;;;;;;;;;5034265;28;20048;-73
2022/09/29 04:38:59;;;;;;;0.20;0.20;;;;;;;;;;5048839;28;20028;-73
2022/09/29 04:41:25;;;;;;;0.20;0.20;;;;;;;;;;5065425;28;20039;-75
2022/09/29 04:43:51;;;;;;;0.20;0.20;;;;;;;;;;5050602;28;20033;-74
2022/09/29 04:46:16;;;;;;;20.30;2.63;;;;;;;;;;5058343;28;20043;-75
2022/09/29 04:48:42;;;;;;;0.20;0.20;;;;;;;;;;5068457;28;20056;-74
2022/09/29 04:51:09;;;;;;;0.20;0.20;;;;;;;;;;5034361;28;20162;-74
2022/09/29 04:53:34;;;;;;;0.22;0.22;;;;;;;;;;5033758;28;20037;-74
2022/09/29 04:56:03;;;;;;;0.25;0.25;;;;;;;;;;5032007;28;20564;-74
2022/09/29 04:58:29;;;;;;;0.20;0.20;;;;;;;;;;5028030;28;20120;-74
2022/09/29 05:00:54;;;;;;;0.47;0.47;;;;;;;;;;5038035;28;20111;-74
2022/09/29 05:03:20;;;;;;;0.20;0.20;;;;;;;;;;4998068;28;20032;-74
2022/09/29 05:05:46;;;;;;;0.10;0.10;;;;;;;;;;5048776;28;20036;-74
2022/09/29 05:08:11;;;;;;;0.20;0.20;;;;;;;;;;5049019;28;20028;-74
2022/09/29 05:10:37;;;;;;;0.30;0.30;;;;;;;;;;5053124;28;20123;-74
2022/09/29 05:13:03;;;;;;;0.10;0.10;;;;;;;;;;5057170;28;20108;-74
2022/09/29 05:15:28;;;;;;;0.15;0.15;;;;;;;;;;5031736;28;20041;-75
2022/09/29 05:17:54;;;;;;;0.28;0.28;;;;;;;;;;5061787;28;20017;-75
2022/09/29 05:20:19;;;;;;;0.20;0.20;;;;;;;;;;5064592;28;20060;-73
2022/09/29 05:22:45;;;;;;;0.20;0.20;;;;;;;;;;5064917;28;20419;-73
2022/09/29 05:25:10;;;;;;;0.20;0.20;;;;;;;;;;5039767;28;20098;-73
2022/09/29 05:27:37;;;;;;;0.20;0.20;;;;;;;;;;5060640;28;20112;-73
2022/09/29 05:30:03;;;;;;;0.20;0.20;;;;;;;;;;5048778;28;20035;-73
2022/09/29 05:32:29;;;;;;;0.10;0.10;;;;;;;;;;5056155;28;20024;-73
2022/09/29 05:34:55;;;;;;;0.20;0.20;;;;;;;;;;5050150;28;20051;-74
2022/09/29 05:37:20;;;;;;;0.20;0.20;;;;;;;;;;5066968;28;20024;-75
2022/09/29 05:39:46;;;;;;;0.20;0.20;;;;;;;;;;5064040;28;20476;-73
2022/09/29 05:42:12;;;;;;;0.20;0.20;;;;;;;;;;5030837;28;20468;-73
2022/09/29 05:44:37;;;;;;;0.17;0.17;;;;;;;;;;5067296;28;20047;-73
2022/09/29 05:47:03;;;;;;;0.30;0.30;;;;;;;;;;5050312;28;20071;-73
2022/09/29 05:49:30;;;;;;;0.80;0.80;;;;;;;;;;5068915;28;20462;-73
2022/09/29 05:51:56;;;;;;;0.20;0.20;;;;;;;;;;5072366;28;20055;-73
2022/09/29 05:54:22;;;;;;;0.20;0.20;;;;;;;;;;5072088;28;20464;-73
2022/09/29 05:56:48;;;;;;;0.20;0.20;;;;;;;;;;5071101;28;20044;-73
2022/09/29 05:59:14;;;;;;;0.10;0.10;;;;;;;;;;5054123;28;20024;-73
2022/09/29 06:01:39;;;;;;;0.20;0.20;;;;;;;;;;5071966;28;20043;-73
2022/09/29 06:04:05;;;;;;;0.40;0.40;;;;;;;;;;5071495;28;20035;-73
2022/09/29 06:06:30;;;;;;;0.20;0.20;;;;;;;;;;5072567;28;20027;-73
2022/09/29 06:08:57;;;;;;;0.20;0.20;;;;;;;;;;5053265;28;20035;-73
2022/09/29 06:11:24;;;;;;;0.20;0.20;;;;;;;;;;5053988;28;20028;-73
2022/09/29 06:13:51;;;;;;;0.20;0.20;;;;;;;;;;5070674;28;20447;-74
2022/09/29 06:16:18;;;;;;;0.20;0.20;;;;;;;;;;5070430;28;20032;-75
2022/09/29 06:18:44;;;;;;;0.25;0.25;;;;;;;;;;5070773;28;20599;-73
2022/09/29 06:21:11;;;;;;;0.20;0.20;;;;;;;;;;5050353;28;20116;-73
2022/09/29 06:23:37;;;;;;;0.22;0.22;;;;;;;;;;5052044;28;20029;-73
2022/09/29 06:26:04;;;;;;;5.25;2.38;;;;;;;;;;5033599;28;20048;-74
2022/09/29 06:28:30;;;;;;;0.20;0.20;;;;;;;;;;5051550;28;20029;-73
2022/09/29 06:30:59;;;;;;;0.20;0.20;;;;;;;;;;5051313;28;20501;-73
2022/09/29 06:33:26;;;;;;;0.20;0.20;;;;;;;;;;5046449;28;20033;-74
2022/09/29 06:38:36;;;;;;;0.20;0.20;;;;;;;;;;5071233;28;20154;-74
2022/09/29 06:41:01;;;;;;;0.20;0.20;;;;;;;;;;5070932;28;20055;-74
2022/09/29 06:43:27;;;;;;;0.30;0.30;;;;;;;;;;5071314;28;20025;-75
2022/09/29 06:45:52;;;;;;;0.13;0.13;;;;;;;;;;5070810;28;20024;-74
2022/09/29 06:48:18;;;;;;;0.43;0.32;;;;;;;;;;5064719;28;20036;-75
2022/09/29 06:50:44;;;;;;;0.20;0.20;;;;;;;;;;5070697;28;20059;-75
2022/09/29 06:53:09;;;;;;;0.20;0.20;;;;;;;;;;5070287;28;20050;-73
2022/09/29 06:55:35;;;;;;;0.20;0.20;;;;;;;;;;5066212;28;20028;-74
2022/09/29 06:58:00;;;;;;;0.20;0.20;;;;;;;;;;5063212;28;20029;-75
2022/09/29 07:00:26;;;;;;;0.20;0.20;;;;;;;;;;5070059;28;20055;-74
2022/09/29 07:02:51;;;;;;;0.20;0.20;;;;;;;;;;5052096;28;20036;-75
2022/09/29 07:05:17;;;;;;;0.17;0.17;;;;;;;;;;5070769;28;20356;-75
2022/09/29 07:07:42;;;;;;;0.20;0.20;;;;;;;;;;5052825;28;20028;-75
2022/09/29 07:10:08;;;;;;;0.52;0.52;;;;;;;;;;5070251;28;20025;-74
2022/09/29 07:12:33;;;;;;;0.20;0.20;;;;;;;;;;5070462;28;20024;-75
2022/09/29 07:14:59;;;;;;;0.10;0.10;;;;;;;;;;5051939;28;20044;-74
2022/09/29 07:17:25;;;;;;;0.10;0.10;;;;;;;;;;5066450;28;20024;-75
2022/09/29 07:19:55;;;;;;;0.20;0.20;;;;;;;;;;5070442;28;20075;-76
2022/09/29 07:22:21;;;;;;;0.20;0.20;;;;;;;;;;5070517;28;20024;-75
2022/09/29 07:24:47;;;;;;;0.20;0.20;;;;;;;;;;5070279;28;20371;-76
2022/09/29 07:27:13;;;;;;;0.20;0.20;;;;;;;;;;5070587;28;20028;-75
2022/09/29 07:29:38;;;;;;;0.20;0.20;;;;;;;;;;5069141;28;20070;-74
2022/09/29 07:32:04;;;;;;;0.20;0.20;;;;;;;;;;5065163;28;20698;-75
2022/09/29 07:34:29;;;;;;;0.20;0.20;;;;;;;;;;5070215;28;20100;-75
2022/09/29 07:36:55;;;;;;;3.33;3.13;;;;;;;;;;5068189;28;20107;-75
2022/09/29 07:39:21;;;;;;;0.20;0.20;;;;;;;;;;5023853;28;20025;-75
2022/09/29 07:41:47;;;;;;;0.20;0.20;;;;;;;;;;5051475;28;20035;-75
2022/09/29 07:44:12;;;;;;;0.20;0.20;;;;;;;;;;5067384;28;20028;-75
2022/09/29 07:46:38;;;;;;;0.30;0.30;;;;;;;;;;5060210;28;20345;-75
2022/09/29 07:49:03;;;;;;;2.10;1.95;;;;;;;;;;5069970;28;20400;-75
2022/09/29 07:51:29;;;;;;;0.82;0.73;;;;;;;;;;5051549;28;20487;-75
2022/09/29 07:53:54;;;;;;;0.20;0.20;;;;;;;;;;5065910;28;20109;-73
2022/09/29 07:56:21;;;;;;;0.20;0.20;;;;;;;;;;5065030;28;20056;-73
2022/09/29 07:58:48;;;;;;;0.20;0.20;;;;;;;;;;5040189;28;20024;-73
2022/09/29 08:01:15;;;;;;;1.95;1.45;;;;;;;;;;5031810;28;20029;-73
2022/09/29 08:03:48;;;;;;;0.20;0.20;;;;;;;;;;5031918;28;20250;-72
2022/09/29 08:06:14;;;;;;;0.20;0.20;;;;;;;;;;5049692;28;20032;-74
2022/09/29 08:08:40;;;;;;;0.43;0.43;;;;;;;;;;5049317;28;20017;-73
2022/09/29 08:11:07;;;;;;;0.20;0.20;;;;;;;;;;5049273;28;20034;-73
2022/09/29 08:13:34;;;;;;;0.20;0.20;;;;;;;;;;5030829;28;20033;-72
2022/09/29 08:16:00;;;;;;;0.20;0.20;;;;;;;;;;5049443;28;20048;-73
2022/09/29 08:18:26;;;;;;;0.30;0.30;;;;;;;;;;5049644;28;20033;-73
2022/09/29 08:20:52;;;;;;;0.68;0.55;;;;;;;;;;5056957;28;20154;-74
2022/09/29 08:23:18;;;;;;;0.20;0.20;;;;;;;;;;5060101;28;20033;-72
2022/09/29 08:25:44;;;;;;;0.17;0.17;;;;;;;;;;5030981;28;20040;-71
2022/09/29 08:28:10;;;;;;;0.30;0.30;;;;;;;;;;5059932;28;20024;-73
2022/09/29 08:30:35;;;;;;;0.20;0.20;;;;;;;;;;5058098;28;20036;-73
2022/09/29 08:33:00;;;;;;;0.30;0.30;;;;;;;;;;5043780;28;20115;-72
2022/09/29 08:35:26;;;;;;;0.20;0.20;;;;;;;;;;5046086;28;20032;-72
2022/09/29 08:37:54;;;;;;;0.20;0.20;;;;;;;;;;5068763;28;20032;-73
2022/09/29 08:40:19;;;;;;;0.20;0.20;;;;;;;;;;5068037;28;20032;-72
2022/09/29 08:42:49;;;;;;;0.20;0.20;;;;;;;;;;5057939;28;20025;-72
2022/09/29 08:45:20;;;;;;;0.20;0.20;;;;;;;;;;5063138;28;20048;-74
2022/09/29 08:47:49;;;;;;;0.20;0.20;;;;;;;;;;5051021;28;20025;-73
2022/09/29 08:50:24;;;;;;;0.30;0.30;;;;;;;;;;5031735;28;20075;-75
2022/09/29 08:52:53;;;;;;;0.20;0.20;;;;;;;;;;5049273;28;20036;-74
2022/09/29 08:55:18;;;;;;;0.20;0.20;;;;;;;;;;5058381;28;20464;-74
2022/09/29 08:57:47;;;;;;;0.28;0.28;;;;;;;;;;5067013;28;20036;-74
2022/09/29 09:00:14;;;;;;;0.20;0.20;;;;;;;;;;5042268;28;20026;-76
2022/09/29 09:02:46;;;;;;;0.20;0.20;;;;;;;;;;5042691;28;20193;-73
2022/09/29 09:05:31;;;;;;;0.25;0.25;;;;;;;;;;5062635;28;20033;-73
2022/09/29 09:07:57;;;;;;;0.40;0.40;;;;;;;;;;5026034;28;20399;-73
2022/09/29 09:10:31;;;;;;;0.20;0.20;;;;;;;;;;5048749;28;20025;-77
2022/09/29 09:13:05;;;;;;;0.20;0.20;;;;;;;;;;5047217;28;20028;-74
2022/09/29 09:15:50;;;;;;;0.20;0.20;;;;;;;;;;5056289;28;20470;-74
2022/09/29 09:18:18;;;;;;;0.22;0.22;;;;;;;;;;5031269;28;20045;-74
2022/09/29 09:20:50;;;;;;;0.20;0.20;;;;;;;;;;5048649;28;20032;-74
2022/09/29 09:23:19;;;;;;;0.30;0.30;;;;;;;;;;5060548;28;20025;-74
2022/09/29 09:25:49;;;;;;;0.22;0.22;;;;;;;;;;5057110;28;20468;-74
2022/09/29 09:28:20;;;;;;;0.20;0.20;;;;;;;;;;5052622;28;20025;-74
2022/09/29 09:30:56;;;;;;;0.20;0.20;;;;;;;;;;5052253;28;20033;-74
2022/09/29 09:33:26;;;;;;;1.70;0.65;;;;;;;;;;5052571;28;20032;-72
2022/09/29 09:35:54;;;;;;;0.10;0.10;;;;;;;;;;5034918;28;20482;-74
2022/09/29 09:38:24;;;;;;;0.30;0.30;;;;;;;;;;5052671;28;20096;-73
2022/09/29 09:40:52;;;;;;;0.20;0.20;;;;;;;;;;5052492;28;20043;-75
2022/09/29 09:43:22;;;;;;;0.40;0.40;;;;;;;;;;5052548;28;20457;-73
2022/09/29 09:45:53;;;;;;;0.10;0.10;;;;;;;;;;5052506;28;20441;-73
2022/09/29 09:48:22;;;;;;;0.63;0.63;;;;;;;;;;5034760;28;20082;-73
2022/09/29 09:50:49;;;;;;;0.20;0.20;;;;;;;;;;5052139;28;20113;-75
2022/09/29 09:53:20;;;;;;;7.32;0.70;;;;;;;;;;5052232;28;20086;-75
2022/09/29 09:55:50;;;;;;;0.30;0.30;;;;;;;;;;5034156;28;20056;-73
2022/09/29 09:58:19;;;;;;;0.20;0.20;;;;;;;;;;5052630;28;20087;-72
2022/09/29 10:00:47;;;;;;;0.25;0.25;;;;;;;;;;5038975;28;20029;-72
2022/09/29 10:03:15;;;;;;;0.20;0.20;;;;;;;;;;5043976;28;20033;-73
2022/09/29 10:05:44;;;;;;;0.20;0.20;;;;;;;;;;5048051;28;20055;-72
2022/09/29 10:08:31;;;;;;;0.20;0.20;;;;;;;;;;5034485;28;20037;-73
2022/09/29 10:10:57;;;;;;;0.20;0.20;;;;;;;;;;5051080;28;20043;-71
2022/09/29 10:13:27;;;;;;;0.20;0.20;;;;;;;;;;5051599;28;20366;-71
2022/09/29 10:15:56;;;;;;;0.30;0.30;;;;;;;;;;5051342;28;20049;-72
2022/09/29 10:18:27;;;;;;;0.20;0.20;;;;;;;;;;5051931;28;20036;-74
2022/09/29 10:20:53;;;;;;;0.20;0.20;;;;;;;;;;5060898;28;20096;-74
2022/09/29 10:23:22;;;;;;;0.20;0.20;;;;;;;;;;5036135;28;20112;-72
2022/09/29 10:25:56;;;;;;;0.20;0.20;;;;;;;;;;5049719;28;20033;-72
2022/09/29 10:28:22;;;;;;;0.20;0.20;;;;;;;;;;5049453;28;20024;-71
2022/09/29 10:30:48;;;;;;;0.30;0.30;;;;;;;;;;5018125;28;20029;-73
2022/09/29 10:33:19;;;;;;;0.20;0.20;;;;;;;;;;5046396;28;20029;-72
2022/09/29 10:35:45;;;;;;;0.20;0.20;;;;;;;;;;5048192;28;20114;-72
2022/09/29 10:38:31;;;;;;;0.20;0.20;;;;;;;;;;5031621;28;20044;-73
2022/09/29 10:40:57;;;;;;;1.00;0.90;;;;;;;;;;5048361;28;20500;-73
2022/09/29 10:43:24;;;;;;;0.22;0.22;;;;;;;;;;5052510;28;20028;-73
2022/09/29 10:45:50;;;;;;;0.40;0.40;;;;;;;;;;5065172;28;20549;-73
2022/09/29 10:48:15;;;;;;;0.47;0.47;;;;;;;;;;5067446;28;20075;-72
2022/09/29 10:50:52;;;;;;;0.20;0.20;;;;;;;;;;5067013;28;20055;-72
2022/09/29 10:53:37;;;;;;;0.47;0.25;;;;;;;;;;5066350;28;20028;-73
2022/09/29 10:56:08;;;;;;;0.30;0.30;;;;;;;;;;5019719;28;20105;-72
2022/09/29 10:58:35;;;;;;;0.20;0.20;;;;;;;;;;5040342;28;20794;-72
2022/09/29 11:01:14;;;;;;;0.30;0.30;;;;;;;;;;5055913;28;20078;-72
2022/09/29 11:03:46;;;;;;;0.70;0.30;;;;;;;;;;5063186;28;20056;-72
2022/09/29 11:06:12;;;;;;;0.63;0.50;;;;;;;;;;5056315;28;20114;-73
2022/09/29 11:09:00;;;;;;;1.85;0.77;;;;;;;;;;5031881;28;20040;-72
2022/09/29 11:11:26;;;;;;;0.47;0.40;;;;;;;;;;5061752;28;20033;-72
2022/09/29 11:13:51;;;;;;;0.20;0.20;;;;;;;;;;5046757;28;20059;-73
2022/09/29 11:16:18;;;;;;;0.30;0.30;;;;;;;;;;5029270;28;20047;-72
2022/09/29 11:18:45;;;;;;;1.00;0.38;;;;;;;;;;5065116;28;20032;-72
2022/09/29 11:21:20;;;;;;;0.20;0.20;;;;;;;;;;5055813;28;20039;-71
2022/09/29 11:23:50;;;;;;;0.90;0.25;;;;;;;;;;5066808;28;20040;-72
2022/09/29 11:26:15;;;;;;;0.80;0.47;;;;;;;;;;5067577;28;20029;-72
2022/09/29 11:28:47;;;;;;;2.22;0.50;;;;;;;;;;5067719;28;20407;-73
2022/09/29 11:31:31;;;;;;;0.50;0.50;;;;;;;;;;5067192;28;20034;-72
2022/09/29 11:34:05;;;;;;;0.50;0.38;;;;;;;;;;5067360;28;20036;-74
2022/09/29 11:36:42;;;;;;;5.68;0.63;;;;;;;;;;5064922;28;20044;-72
2022/09/29 11:39:18;;;;;;;0.20;0.20;;;;;;;;;;5055915;28;20433;-70
2022/09/29 11:41:43;;;;;;;0.80;0.77;;;;;;;;;;5066850;28;20479;-73
2022/09/29 11:44:21;;;;;;;0.65;0.35;;;;;;;;;;5068150;28;20028;-72
2022/09/29 11:46:55;;;;;;;0.30;0.30;;;;;;;;;;5050174;28;20082;-73
2022/09/29 11:49:30;;;;;;;0.50;0.30;;;;;;;;;;5064280;28;20028;-71
2022/09/29 11:51:55;;;;;;;2.58;0.50;;;;;;;;;;5067277;28;20036;-72
2022/09/29 11:54:40;;;;;;;2.15;0.73;;;;;;;;;;5067432;28;20387;-72
2022/09/29 11:57:17;;;;;;;1.38;0.28;;;;;;;;;;5066897;28;20029;-72
2022/09/29 11:59:51;;;;;;;0.88;0.38;;;;;;;;;;5045253;28;20540;-71
2022/09/29 12:02:20;;;;;;;0.40;0.30;;;;;;;;;;5067379;28;20119;-73
2022/09/29 12:05:06;;;;;;;0.20;0.20;;;;;;;;;;5054442;28;20036;-73
2022/09/29 12:07:37;;;;;;;0.30;0.30;;;;;;;;;;5058202;28;20273;-74
2022/09/29 12:10:07;;;;;;;3.78;0.68;;;;;;;;;;5067724;28;20025;-74
2022/09/29 12:12:35;;;;;;;1.95;0.70;;;;;;;;;;5067892;28;20038;-73
2022/09/29 12:15:07;;;;;;;0.20;0.20;;;;;;;;;;5067272;28;20614;-72
2022/09/29 12:17:34;;;;;;;0.22;0.22;;;;;;;;;;5066311;28;20067;-72
2022/09/29 12:20:22;;;;;;;0.40;0.40;;;;;;;;;;5067039;28;20055;-72
2022/09/29 12:22:49;;;;;;;0.50;0.50;;;;;;;;;;5067609;28;20032;-71
2022/09/29 12:25:16;;;;;;;0.70;0.70;;;;;;;;;;5067739;28;20044;-72
2022/09/29 12:27:43;;;;;;;0.52;0.32;;;;;;;;;;5065884;28;20044;-73
2022/09/29 12:30:20;;;;;;;1.20;0.50;;;;;;;;;;5064599;28;20131;-71
2022/09/29 12:32:50;;;;;;;2.05;0.52;;;;;;;;;;5053196;28;20103;-71
2022/09/29 12:35:36;;;;;;;0.20;0.20;;;;;;;;;;5057441;28;20043;-73
2022/09/29 12:38:02;;;;;;;1.15;0.40;;;;;;;;;;5064250;28;20025;-72
2022/09/29 12:40:32;;;;;;;0.43;0.30;;;;;;;;;;5039702;28;20036;-74
2022/09/29 12:43:02;;;;;;;0.40;0.40;;;;;;;;;;5066847;28;20024;-72
2022/09/29 12:45:27;;;;;;;8.15;0.77;;;;;;;;;;5065122;28;20028;-72
2022/09/29 12:47:56;;;;;;;0.25;0.25;;;;;;;;;;5066191;28;20031;-72
2022/09/29 12:50:25;;;;;;;0.30;0.30;;;;;;;;;;5029425;28;20044;-72
2022/09/29 12:52:50;;;;;;;;;;;;;;;;;;5048780;28;20032;-72
2022/09/29 12:55:36;;;;;;;2.67;0.40;;;;;;;;;;5066823;28;19938;-73
2022/09/29 12:58:04;;;;;;;0.70;0.22;;;;;;;;;;5066276;28;20274;-72
2022/09/29 13:00:33;;;;;;;1.55;0.43;;;;;;;;;;5069134;28;20025;-73
2022/09/29 13:03:00;;;;;;;8.27;1.52;;;;;;;;;;5070598;28;20029;-72
2022/09/29 13:05:44;;;;;;;0.50;0.50;;;;;;;;;;5069516;28;20475;-72
2022/09/29 13:08:10;;;;;;;1.13;0.52;;;;;;;;;;5070423;28;20025;-72
2022/09/29 13:10:36;;;;;;;0.22;0.22;;;;;;;;;;5071104;28;20043;-73
2022/09/29 13:13:20;;;;;;;0.20;0.20;;;;;;;;;;5070366;28;20141;-72
2022/09/29 13:15:49;;;;;;;0.20;0.20;;;;;;;;;;5071036;28;20459;-73
2022/09/29 13:18:16;;;;;;;;;;;;;;;;;;5071173;28;20170;-73
2022/09/29 13:20:47;;;;;;;0.38;0.38;;;;;;;;;;5069131;28;20031;-73
2022/09/29 13:23:35;;;;;;;0.20;0.20;;;;;;;;;;5070311;28;20035;-72
2022/09/29 13:26:05;;;;;;;0.25;0.25;;;;;;;;;;5070656;28;20035;-72
2022/09/29 13:28:31;;;;;;;1.33;0.40;;;;;;;;;;5070669;28;20100;-71
2022/09/29 13:31:07;;;;;;;0.93;0.93;;;;;;;;;;5070189;28;20605;-73
2022/09/29 13:33:33;;;;;;;0.20;0.20;;;;;;;;;;5065601;28;20059;-72
2022/09/29 13:35:59;;;;;;;2.28;0.60;;;;;;;;;;5070419;28;20036;-72
2022/09/29 13:38:26;;;;;;;0.20;0.20;;;;;;;;;;5069399;28;20543;-72
2022/09/29 13:41:09;;;;;;;0.25;0.25;;;;;;;;;;5071449;28;20379;-71
2022/09/29 13:43:39;;;;;;;3.50;0.95;;;;;;;;;;5036384;28;20392;-73
2022/09/29 13:46:23;;;;;;;0.30;0.30;;;;;;;;;;5071931;28;20064;-72
2022/09/29 13:48:54;;;;;;;0.52;0.35;;;;;;;;;;5054041;28;20021;-72
2022/09/29 13:51:28;;;;;;;0.30;0.30;;;;;;;;;;5072085;28;20037;-72
2022/09/29 13:54:20;;;;;;;7.57;1.27;;;;;;;;;;5037317;28;20111;-72
2022/09/29 13:56:50;;;;;;;0.20;0.20;;;;;;;;;;5052302;28;20052;-72
2022/09/29 13:59:20;;;;;;;0.95;0.57;;;;;;;;;;5069692;28;20024;-72
2022/09/29 14:01:45;;;;;;;0.22;0.20;;;;;;;;;;5069107;28;20025;-72
2022/09/29 14:04:29;;;;;;;1.65;1.00;;;;;;;;;;5068219;28;20346;-72
2022/09/29 14:06:57;;;;;;;0.30;0.30;;;;;;;;;;5067086;28;20124;-72
2022/09/29 14:09:23;;;;;;;1.17;0.85;;;;;;;;;;5068217;28;20107;-72
2022/09/29 14:11:50;;;;;;;0.75;0.70;;;;;;;;;;5067722;28;20139;-71
2022/09/29 14:14:19;;;;;;;3.53;0.73;;;;;;;;;;5069506;28;20055;-72
2022/09/29 14:16:45;;;;;;;0.28;0.28;;;;;;;;;;5052363;28;20041;-72
2022/09/29 14:19:23;;;;;;;2.28;0.57;;;;;;;;;;5071604;28;20082;-72
2022/09/29 14:21:49;;;;;;;3.50;0.70;;;;;;;;;;5071724;28;20033;-72
2022/09/29 14:24:33;;;;;;;1.50;0.32;;;;;;;;;;5071649;28;20051;-72
2022/09/29 14:27:31;;;;;;;0.52;0.30;;;;;;;;;;5071353;28;20085;-73
2022/09/29 14:30:19;;;;;;;17.30;1.30;;;;;;;;;;5059045;28;20177;-72
2022/09/29 14:32:45;;;;;;;0.30;0.27;;;;;;;;;;5049916;28;20048;-73
2022/09/29 14:35:34;;;;;;;2.92;0.40;;;;;;;;;;5071385;28;20738;-73
2022/09/29 14:38:12;;;;;;;3.25;0.73;;;;;;;;;;5068543;28;20040;-73
2022/09/29 14:40:38;;;;;;;0.35;0.32;;;;;;;;;;5052879;28;20024;-73
2022/09/29 14:43:09;;;;;;;0.50;0.35;;;;;;;;;;5071209;28;20057;-73
2022/09/29 14:54:18;;;;;;;0.20;0.20;;;;;;;;;;5071250;28;20054;-72
2022/09/29 14:56:47;;;;;;;0.57;0.38;;;;;;;;;;5070613;28;20048;-71
2022/09/29 14:59:13;;;;;;;;;;;;;;;;;;5070532;28;20094;-73
2022/09/29 15:01:52;;;;;;;1.65;0.65;;;;;;;;;;5070688;28;20327;-72
2022/09/29 15:04:18;;;;;;;0.45;0.45;;;;;;;;;;5070972;28;20024;-71
2022/09/29 15:06:48;;;;;;;0.20;0.20;;;;;;;;;;5070722;28;20572;-71